createdAt,value
2019-03-28T00:00:58.384Z,15.93
2019-03-28T00:03:28.044Z,16.30
2019-03-28T00:05:58.114Z,17.50
2019-03-28T00:08:28.274Z,16.50
2019-03-28T00:10:58.308Z,16.03
2019-03-28T00:13:27.732Z,16.00
2019-03-28T00:15:57.040Z,16.47
2019-03-28T00:18:26.450Z,16.00
2019-03-28T00:20:55.848Z,18.53
2019-03-28T00:23:39.493Z,15.57
2019-03-28T00:26:09.873Z,15.40
2019-03-28T00:28:39.184Z,15.00
2019-03-28T00:31:09.468Z,14.73
2019-03-28T00:33:38.915Z,15.17
2019-03-28T00:36:08.551Z,13.60
2019-03-28T00:38:37.969Z,15.77
2019-03-28T00:41:07.410Z,16.17
2019-03-28T00:43:36.794Z,16.70
2019-03-28T00:46:06.220Z,17.47
2019-03-28T00:48:35.633Z,16.30
2019-03-28T00:51:05.182Z,15.93
2019-03-28T00:53:34.970Z,14.27
2019-03-28T00:56:04.962Z,16.90
2019-03-28T00:58:34.418Z,15.40
2019-03-28T01:01:03.974Z,17.17
2019-03-28T01:03:33.514Z,15.77
2019-03-28T01:06:02.954Z,16.50
2019-03-28T01:08:32.309Z,15.10
2019-03-28T01:11:01.701Z,14.30
2019-03-28T01:13:31.156Z,16.77
2019-03-28T01:16:00.614Z,14.57
2019-03-28T01:18:30.433Z,15.57
2019-03-28T01:20:59.884Z,15.37
2019-03-28T01:23:29.553Z,15.17
2019-03-28T01:25:58.919Z,14.43
2019-03-28T01:28:28.348Z,15.07
2019-03-28T01:30:57.757Z,14.97
2019-03-28T01:33:27.438Z,17.97
2019-03-28T01:35:56.786Z,15.20
2019-03-28T01:38:26.498Z,16.47
2019-03-28T01:40:56.046Z,18.13
2019-03-28T01:43:25.698Z,16.97
2019-03-28T01:45:55.182Z,17.17
2019-03-28T01:48:24.576Z,14.87
2019-03-28T01:50:54.276Z,15.47
2019-03-28T01:53:23.952Z,16.00
2019-03-28T01:55:53.332Z,15.77
2019-03-28T01:58:22.837Z,15.77
2019-03-28T02:00:52.142Z,15.27
2019-03-28T02:03:21.475Z,13.63
2019-03-28T02:05:51.125Z,15.67
2019-03-28T02:11:49.322Z,14.67
2019-03-28T02:14:18.729Z,13.90
2019-03-28T02:16:48.416Z,14.07
2019-03-28T02:19:17.812Z,14.10
2019-03-28T02:21:47.203Z,14.33
2019-03-28T02:24:16.884Z,14.77
2019-03-28T02:26:46.378Z,15.43
2019-03-28T02:29:16.085Z,16.33
2019-03-28T02:31:45.470Z,17.23
2019-03-28T02:34:15.156Z,14.23
2019-03-28T02:36:44.546Z,14.67
2019-03-28T02:39:14.098Z,15.10
2019-03-28T02:41:43.697Z,16.03
2019-03-28T02:44:13.524Z,13.87
2019-03-28T02:46:51.945Z,15.30
2019-03-28T02:49:21.782Z,14.50
2019-03-28T02:51:51.295Z,14.93
2019-03-28T02:54:20.876Z,15.00
2019-03-28T02:56:50.314Z,15.80
2019-03-28T02:59:19.768Z,14.97
2019-03-28T03:01:49.409Z,13.80
2019-03-28T03:04:18.783Z,12.80
2019-03-28T03:06:48.425Z,14.00
2019-03-28T03:09:17.812Z,13.13
2019-03-28T03:11:47.173Z,14.67
2019-03-28T03:14:16.604Z,15.37
2019-03-28T03:16:46.076Z,15.60
2019-03-28T03:19:15.552Z,12.53
2019-03-28T03:21:45.295Z,16.60
2019-03-28T03:24:22.548Z,14.27
2019-03-28T03:26:52.338Z,13.73
2019-03-28T03:29:21.730Z,14.07
2019-03-28T03:31:51.235Z,13.67
2019-03-28T03:34:20.600Z,14.20
2019-03-28T03:36:50.625Z,13.40
2019-03-28T03:39:20.342Z,14.27
2019-03-28T03:41:50.342Z,14.40
2019-03-28T03:44:20.089Z,12.93
2019-03-28T03:46:50.099Z,15.57
2019-03-28T03:49:19.835Z,16.60
2019-03-28T03:51:49.768Z,17.10
2019-03-28T03:54:19.670Z,16.57
2019-03-28T03:56:49.549Z,16.33
2019-03-28T03:59:19.397Z,17.23
2019-03-28T04:01:49.315Z,18.83
2019-03-28T04:04:19.274Z,16.80
2019-03-28T04:06:48.662Z,16.47
2019-03-28T04:09:18.278Z,19.20
2019-03-28T04:11:47.917Z,17.43
2019-03-28T04:14:17.355Z,16.00
2019-03-28T04:16:47.078Z,15.60
2019-03-28T04:19:16.686Z,15.60
2019-03-28T04:21:46.432Z,15.17
2019-03-28T04:24:16.018Z,16.60
2019-03-28T04:26:45.448Z,15.47
2019-03-28T04:29:15.390Z,16.13
2019-03-28T04:31:44.852Z,15.57
2019-03-28T04:34:14.610Z,15.37
2019-03-28T04:36:46.278Z,15.97
2019-03-28T04:39:16.567Z,15.93
2019-03-28T04:41:46.265Z,16.90
2019-03-28T04:44:15.601Z,15.97
2019-03-28T04:46:45.381Z,14.60
2019-03-28T04:49:15.826Z,15.50
2019-03-28T04:51:45.902Z,15.53
2019-03-28T04:54:15.258Z,15.40
2019-03-28T04:56:44.664Z,15.47
2019-03-28T04:59:14.174Z,15.67
2019-03-28T05:01:43.601Z,16.60
2019-03-28T05:04:13.054Z,17.40
2019-03-28T05:06:42.438Z,17.50
2019-03-28T05:09:12.180Z,17.80
2019-03-28T05:11:41.576Z,17.10
2019-03-28T05:14:11.556Z,18.17
2019-03-28T05:16:41.221Z,17.23
2019-03-28T05:19:10.870Z,14.17
2019-03-28T05:21:40.425Z,13.47
2019-03-28T05:24:09.822Z,14.13
2019-03-28T05:26:39.162Z,14.27
2019-03-28T05:29:27.915Z,16.17
2019-03-28T05:31:57.622Z,15.87
2019-03-28T05:34:26.965Z,16.03
2019-03-28T05:36:56.329Z,15.27
2019-03-28T05:39:27.787Z,16.40
2019-03-28T05:41:57.171Z,18.10
2019-03-28T05:44:26.625Z,17.30
2019-03-28T05:46:56.313Z,18.10
2019-03-28T05:49:25.735Z,18.27
2019-03-28T05:51:55.155Z,20.27
2019-03-28T05:54:24.745Z,19.60
2019-03-28T05:56:54.397Z,20.77
2019-03-28T05:59:23.905Z,18.60
2019-03-28T06:01:56.773Z,19.83
2019-03-28T06:04:26.484Z,19.73
2019-03-28T06:06:56.234Z,19.77
2019-03-28T06:09:26.066Z,21.13
2019-03-28T06:11:55.569Z,22.70
2019-03-28T06:14:25.284Z,23.90
2019-03-28T06:16:54.911Z,22.13
2019-03-28T06:19:24.502Z,24.13
2019-03-28T06:21:54.152Z,23.13
2019-03-28T06:24:44.469Z,24.50
2019-03-28T06:27:14.199Z,22.47
2019-03-28T06:29:43.829Z,24.13
2019-03-28T06:32:13.405Z,25.67
2019-03-28T06:34:43.084Z,25.20
2019-03-28T06:37:12.779Z,23.70
2019-03-28T06:39:42.566Z,23.73
2019-03-28T06:42:12.077Z,21.73
2019-03-28T06:44:41.645Z,22.77
2019-03-28T06:47:11.366Z,22.27
2019-03-28T06:49:40.921Z,21.87
2019-03-28T06:52:10.516Z,19.73
2019-03-28T06:54:40.208Z,20.33
2019-03-28T06:57:09.765Z,19.33
2019-03-28T06:59:39.348Z,21.03
2019-03-28T07:02:08.800Z,20.90
2019-03-28T07:04:38.466Z,20.90
2019-03-28T07:07:08.233Z,20.27
2019-03-28T07:09:37.674Z,19.73
2019-03-28T07:12:07.258Z,18.20
2019-03-28T07:14:37.030Z,18.07
2019-03-28T07:17:05.825Z,19.77
2019-03-28T07:19:35.325Z,18.87
2019-03-28T07:22:04.997Z,19.23
2019-03-28T07:24:34.426Z,20.77
2019-03-28T07:27:03.853Z,18.30
2019-03-28T07:29:33.346Z,18.67
2019-03-28T07:32:03.205Z,16.03
2019-03-28T07:34:32.733Z,16.77
2019-03-28T07:37:02.139Z,16.43
2019-03-28T07:39:41.132Z,16.60
2019-03-28T07:42:18.484Z,14.27
2019-03-28T07:44:48.032Z,16.43
2019-03-28T07:47:17.477Z,15.20
2019-03-28T07:49:47.249Z,14.03
2019-03-28T07:52:19.756Z,16.70
2019-03-28T07:54:48.932Z,14.80
2019-03-28T07:57:18.896Z,15.43
2019-03-28T07:59:48.397Z,14.70
2019-03-28T08:02:17.903Z,15.57
2019-03-28T08:04:47.323Z,15.07
2019-03-28T08:07:16.814Z,15.07
2019-03-28T08:09:46.342Z,14.33
2019-03-28T08:12:22.550Z,13.47
2019-03-28T08:15:36.083Z,13.87
2019-03-28T08:18:23.654Z,13.77
2019-03-28T08:20:47.490Z,13.90
2019-03-28T08:23:17.061Z,13.37
2019-03-28T08:25:46.561Z,13.57
2019-03-28T08:28:16.070Z,13.13
2019-03-28T08:30:45.874Z,12.77
2019-03-28T08:33:15.565Z,11.90
2019-03-28T08:35:45.152Z,12.47
2019-03-28T08:38:15.206Z,12.20
2019-03-28T08:40:45.052Z,11.70
2019-03-28T08:43:14.877Z,12.03
2019-03-28T08:45:44.651Z,10.83
2019-03-28T08:48:14.209Z,11.63
2019-03-28T08:50:44.021Z,12.33
2019-03-28T08:53:13.521Z,12.30
2019-03-28T08:55:43.680Z,11.33
2019-03-28T08:58:13.241Z,10.30
2019-03-28T09:00:51.723Z,10.90
2019-03-28T09:03:14.333Z,9.80
2019-03-28T09:06:09.877Z,8.80
2019-03-28T09:08:39.571Z,10.40
2019-03-28T09:11:09.384Z,9.07
2019-03-28T09:13:39.222Z,8.33
2019-03-28T09:16:08.765Z,7.90
2019-03-28T09:18:38.270Z,7.97
2019-03-28T09:21:08.256Z,8.07
2019-03-28T09:23:38.308Z,7.20
2019-03-28T09:26:08.107Z,6.83
2019-03-28T09:28:37.857Z,8.87
2019-03-28T09:31:19.179Z,7.00
2019-03-28T09:33:55.398Z,7.17
2019-03-28T09:36:25.140Z,6.63
2019-03-28T09:38:54.725Z,7.93
2019-03-28T09:41:24.182Z,5.65
2019-03-28T09:43:55.530Z,5.70
2019-03-28T09:46:25.140Z,6.33
2019-03-28T09:48:54.717Z,5.80
2019-03-28T09:51:24.144Z,5.90
2019-03-28T09:53:53.650Z,5.37
2019-03-28T09:56:23.154Z,5.40
2019-03-28T09:58:52.632Z,5.67
2019-03-28T10:01:22.466Z,5.08
2019-03-28T10:03:52.726Z,5.15
2019-03-28T10:06:22.222Z,5.05
2019-03-28T10:08:52.074Z,4.78
2019-03-28T10:11:21.594Z,4.85
2019-03-28T10:13:51.074Z,4.42
2019-03-28T10:16:20.668Z,5.70
2019-03-28T10:18:50.059Z,5.12
2019-03-28T10:21:19.466Z,5.08
2019-03-28T10:23:48.869Z,5.72
2019-03-28T10:26:18.294Z,4.33
2019-03-28T10:28:47.923Z,5.35
2019-03-28T10:31:17.631Z,4.33
2019-03-28T10:33:47.510Z,4.78
2019-03-28T10:36:17.590Z,4.37
2019-03-28T10:38:47.320Z,4.22
2019-03-28T10:41:16.784Z,4.78
2019-03-28T10:43:46.413Z,4.97
2019-03-28T10:46:16.102Z,4.62
2019-03-28T10:48:45.667Z,4.10
2019-03-28T10:51:15.204Z,4.10
2019-03-28T10:53:44.980Z,4.25
2019-03-28T10:56:22.024Z,4.58
2019-03-28T10:58:46.612Z,4.83
2019-03-28T11:01:18.213Z,5.53
2019-03-28T11:03:47.533Z,5.47
2019-03-28T11:06:17.244Z,4.83
2019-03-28T11:08:46.825Z,5.17
2019-03-28T11:11:16.405Z,4.97
2019-03-28T11:13:45.974Z,4.50
2019-03-28T11:16:15.534Z,6.25
2019-03-28T11:18:45.169Z,4.95
2019-03-28T11:21:14.699Z,4.60
2019-03-28T11:23:44.372Z,4.58
2019-03-28T11:26:13.844Z,4.25
2019-03-28T11:28:52.960Z,4.40
2019-03-28T11:31:22.720Z,4.53
2019-03-28T11:33:52.512Z,4.00
2019-03-28T11:36:22.193Z,4.12
2019-03-28T11:38:51.784Z,4.25
2019-03-28T11:41:21.297Z,4.60
2019-03-28T11:43:50.857Z,4.25
2019-03-28T11:46:20.672Z,3.72
2019-03-28T11:48:50.309Z,4.55
2019-03-28T11:51:20.130Z,3.92
2019-03-28T11:53:51.028Z,4.30
2019-03-28T11:56:20.527Z,4.42
2019-03-28T11:58:50.068Z,4.12
2019-03-28T12:01:19.716Z,4.05
2019-03-28T12:03:49.171Z,3.87
2019-03-28T12:06:18.744Z,3.67
2019-03-28T12:08:48.311Z,4.08
2019-03-28T12:11:17.982Z,4.03
2019-03-28T12:13:47.826Z,4.75
2019-03-28T12:16:17.657Z,3.67
2019-03-28T12:18:47.154Z,3.65
2019-03-28T12:21:17.004Z,3.27
2019-03-28T12:23:47.667Z,3.83
2019-03-28T12:26:17.530Z,2.95
2019-03-28T12:28:46.994Z,4.08
2019-03-28T12:31:16.694Z,3.35
2019-03-28T12:33:46.523Z,3.55
2019-03-28T12:36:16.078Z,3.70
2019-03-28T12:38:45.893Z,4.25
2019-03-28T12:41:15.503Z,3.62
2019-03-28T12:43:45.588Z,5.22
2019-03-28T12:46:15.486Z,4.20
2019-03-28T12:48:45.041Z,3.87
2019-03-28T12:51:15.579Z,4.33
2019-03-28T12:53:45.117Z,4.00
2019-03-28T12:56:14.685Z,4.40
2019-03-28T12:58:46.816Z,4.47
2019-03-28T13:01:18.366Z,4.45
2019-03-28T13:03:48.383Z,3.50
2019-03-28T13:06:17.952Z,4.15
2019-03-28T13:08:47.420Z,4.08
2019-03-28T13:11:17.417Z,3.70
2019-03-28T13:13:56.432Z,3.92
2019-03-28T13:16:26.057Z,4.12
2019-03-28T13:18:55.788Z,4.33
2019-03-28T13:21:25.711Z,3.92
2019-03-28T13:23:55.325Z,4.15
2019-03-28T13:26:24.880Z,3.75
2019-03-28T13:28:54.656Z,4.35
2019-03-28T13:31:24.962Z,4.25
2019-03-28T13:34:08.259Z,3.70
2019-03-28T13:36:38.210Z,3.70
2019-03-28T13:39:08.670Z,4.33
2019-03-28T13:41:40.497Z,3.95
2019-03-28T13:44:12.719Z,3.67
2019-03-28T13:50:27.859Z,4.10
2019-03-28T13:53:47.537Z,4.17
2019-03-28T13:56:34.822Z,3.45
2019-03-28T13:59:34.962Z,3.55
2019-03-28T14:02:06.644Z,3.40
2019-03-28T14:07:28.861Z,3.92
2019-03-28T14:10:04.961Z,5.10
2019-03-28T14:12:38.188Z,3.98
2019-03-28T14:15:08.313Z,3.10
2019-03-28T14:17:38.431Z,4.08
2019-03-28T14:20:08.922Z,4.50
2019-03-28T14:22:38.563Z,3.45
2019-03-28T14:25:08.830Z,3.05
2019-03-28T14:27:39.563Z,4.28
2019-03-28T14:30:10.769Z,3.97
2019-03-28T14:32:52.552Z,5.65
2019-03-28T14:35:13.261Z,3.27
2019-03-28T14:37:43.027Z,3.72
2019-03-28T14:40:30.913Z,3.80
2019-03-28T14:43:01.169Z,3.55
2019-03-28T14:45:30.330Z,3.40
2019-03-28T14:48:00.073Z,2.80
2019-03-28T14:50:38.149Z,2.57
2019-03-28T14:53:08.055Z,3.03
2019-03-28T14:55:37.951Z,3.60
2019-03-28T14:58:07.942Z,3.47
2019-03-28T15:00:47.128Z,3.57
2019-03-28T15:03:26.737Z,3.33
2019-03-28T15:05:54.062Z,2.93
2019-03-28T15:08:23.933Z,2.80
2019-03-28T15:10:53.696Z,3.33
2019-03-28T15:13:23.499Z,3.10
2019-03-28T15:15:53.666Z,3.27
2019-03-28T15:25:23.901Z,3.47
2019-03-28T15:32:08.470Z,3.50
2019-03-28T15:38:14.011Z,3.23
2019-03-28T15:40:43.865Z,3.20
2019-03-28T16:08:17.568Z,4.00
2019-03-28T16:10:47.253Z,4.00
2019-03-28T16:13:19.295Z,4.67
2019-03-28T16:15:48.792Z,4.80
2019-03-28T16:18:21.605Z,4.00
2019-03-28T16:20:53.443Z,4.60
2019-03-28T16:23:22.537Z,4.03
2019-03-28T16:25:52.167Z,3.83
2019-03-28T16:28:22.025Z,3.47
2019-03-28T16:30:51.595Z,3.17
2019-03-28T16:33:21.104Z,3.30
2019-03-28T16:35:50.745Z,2.93
2019-03-28T16:38:20.197Z,3.27
2019-03-28T16:40:49.600Z,2.73
2019-03-28T16:43:21.872Z,2.60
2019-03-28T16:45:51.530Z,3.60
2019-03-28T16:48:20.889Z,2.57
2019-03-28T16:50:50.373Z,2.40
2019-03-28T16:53:19.894Z,2.77
2019-03-28T16:55:49.424Z,2.70
2019-03-28T16:58:19.799Z,2.47
2019-03-28T17:01:00.117Z,2.50
2019-03-28T17:03:29.588Z,2.87
2019-03-28T17:05:59.784Z,3.27
2019-03-28T17:08:31.781Z,2.83
2019-03-28T17:11:01.300Z,4.20
2019-03-28T17:13:31.060Z,4.40
2019-03-28T17:16:00.598Z,3.90
2019-03-28T17:18:31.238Z,4.50
2019-03-28T17:21:01.052Z,4.53
2019-03-28T17:23:30.568Z,4.23
2019-03-28T17:26:00.100Z,4.37
2019-03-28T17:28:29.820Z,4.47
2019-03-28T17:30:59.484Z,3.87
2019-03-28T17:33:29.040Z,4.57
2019-03-28T17:35:58.522Z,3.70
2019-03-28T17:38:27.897Z,4.40
2019-03-28T17:40:57.590Z,4.70
2019-03-28T17:43:26.946Z,4.50
2019-03-28T17:45:56.432Z,4.40
2019-03-28T17:48:28.338Z,4.97
2019-03-28T17:50:57.996Z,4.93
2019-03-28T17:53:27.344Z,4.53
2019-03-28T17:55:56.823Z,4.70
2019-03-28T17:58:26.426Z,4.73
2019-03-28T18:00:56.319Z,4.53
2019-03-28T18:03:31.508Z,4.33
2019-03-28T18:05:58.711Z,4.90
2019-03-28T18:08:28.521Z,5.57
2019-03-28T18:11:00.343Z,5.10
2019-03-28T18:13:29.389Z,5.33
2019-03-28T18:15:59.101Z,4.93
2019-03-28T18:18:28.797Z,5.27
2019-03-28T18:20:58.275Z,5.17
2019-03-28T18:23:27.642Z,4.67
2019-03-28T18:25:57.079Z,5.47
2019-03-28T18:28:26.810Z,5.07
2019-03-28T18:30:56.241Z,5.17
2019-03-28T18:33:25.671Z,5.53
2019-03-28T18:35:55.128Z,5.40
2019-03-28T18:38:24.595Z,5.50
2019-03-28T18:40:54.027Z,4.77
2019-03-28T18:43:23.804Z,4.67
2019-03-28T18:45:53.476Z,5.10
2019-03-28T18:48:30.843Z,5.23
2019-03-28T18:50:54.547Z,4.73
2019-03-28T18:53:24.845Z,5.13
2019-03-28T18:55:55.732Z,4.23
2019-03-28T18:58:25.523Z,5.23
2019-03-28T19:00:55.017Z,5.20
2019-03-28T19:03:24.539Z,4.67
2019-03-28T19:05:53.895Z,4.87
2019-03-28T19:08:23.394Z,4.77
2019-03-28T19:10:52.960Z,3.83
2019-03-28T19:13:22.349Z,4.77
2019-03-28T19:15:52.050Z,4.20
2019-03-28T19:18:21.463Z,3.57
2019-03-28T19:20:54.121Z,3.57
2019-03-28T19:23:24.821Z,3.70
2019-03-28T19:25:54.763Z,3.93
2019-03-28T19:28:29.099Z,4.33
2019-03-28T19:30:55.753Z,4.03
2019-03-28T19:33:25.336Z,4.50
2019-03-28T19:35:55.304Z,4.03
2019-03-28T19:38:25.636Z,4.23
2019-03-28T19:40:55.094Z,4.83
2019-03-28T19:43:24.659Z,4.30
2019-03-28T19:45:54.120Z,3.83
2019-03-28T19:48:23.540Z,3.83
2019-03-28T19:50:53.256Z,3.60
2019-03-28T19:53:23.040Z,3.60
2019-03-28T19:55:52.582Z,4.40
2019-03-28T19:58:22.525Z,4.13
2019-03-28T20:00:52.041Z,3.80
2019-03-28T20:03:23.266Z,4.00
2019-03-28T20:05:52.754Z,3.83
2019-03-28T20:08:25.829Z,3.63
2019-03-28T20:10:54.199Z,3.93
2019-03-28T20:13:24.203Z,4.70
2019-03-28T20:15:53.826Z,3.60
2019-03-28T20:18:23.499Z,4.60
2019-03-28T20:20:55.636Z,4.20
2019-03-28T20:23:24.391Z,4.23
2019-03-28T20:25:53.872Z,4.20
2019-03-28T20:28:26.484Z,4.27
2019-03-28T20:30:54.388Z,3.63
2019-03-28T20:33:25.195Z,3.77
2019-03-28T20:36:11.842Z,3.43
2019-03-28T20:38:26.567Z,3.70
2019-03-28T20:40:58.506Z,4.13
2019-03-28T20:43:27.412Z,4.10
2019-03-28T20:45:56.776Z,3.83
2019-03-28T20:48:26.336Z,4.60
2019-03-28T20:50:55.864Z,4.13
2019-03-28T20:53:25.333Z,3.90
2019-03-28T20:55:55.033Z,4.00
2019-03-28T20:58:24.403Z,3.97
2019-03-28T21:00:53.957Z,3.90
2019-03-28T21:03:23.488Z,4.27
2019-03-28T21:05:55.262Z,4.67
2019-03-28T21:08:25.093Z,4.50
2019-03-28T21:10:55.188Z,5.13
2019-03-28T21:13:29.683Z,4.77
2019-03-28T21:15:58.252Z,4.67
2019-03-28T21:18:30.045Z,4.57
2019-03-28T21:20:59.496Z,4.50
2019-03-28T21:23:29.229Z,4.93
2019-03-28T21:25:58.693Z,4.63
2019-03-28T21:28:28.069Z,5.83
2019-03-28T21:30:59.050Z,4.93
2019-03-28T21:33:28.701Z,5.30
2019-03-28T21:35:58.272Z,5.60
2019-03-28T21:38:27.844Z,6.30
2019-03-28T21:40:59.582Z,5.40
2019-03-28T21:43:28.405Z,5.60
2019-03-28T21:45:58.100Z,5.43
2019-03-28T21:48:27.741Z,6.37
2019-03-28T21:50:57.061Z,5.53
2019-03-28T21:53:26.400Z,6.30
2019-03-28T21:55:57.484Z,5.77
2019-03-28T21:58:26.965Z,5.23
2019-03-28T22:00:56.342Z,5.30
2019-03-28T22:03:25.666Z,6.27
2019-03-28T22:05:55.485Z,6.20
2019-03-28T22:08:24.797Z,5.30
2019-03-28T22:10:54.141Z,6.00
2019-03-28T22:13:23.461Z,5.50
2019-03-28T22:15:52.779Z,6.03
2019-03-28T22:18:22.225Z,5.63
2019-03-28T22:20:51.644Z,6.03
2019-03-28T22:23:21.228Z,6.33
2019-03-28T22:25:50.556Z,6.27
2019-03-28T22:28:19.872Z,5.90
2019-03-28T22:30:49.440Z,6.90
2019-03-28T22:33:18.807Z,6.80
2019-03-28T22:35:48.406Z,7.00
2019-03-28T22:38:17.753Z,7.87
2019-03-28T22:40:47.155Z,7.80
2019-03-28T22:43:16.497Z,7.40
2019-03-28T22:45:45.893Z,7.90
2019-03-28T22:48:15.468Z,7.77
2019-03-28T22:50:44.961Z,8.97
2019-03-28T22:53:14.366Z,8.10
2019-03-28T22:55:43.973Z,8.30
2019-03-28T22:58:13.492Z,7.17
2019-03-28T23:00:46.997Z,7.83
2019-03-28T23:03:17.782Z,7.57
2019-03-28T23:05:47.235Z,8.17
2019-03-28T23:08:16.565Z,7.87
2019-03-28T23:10:46.209Z,8.07
2019-03-28T23:13:15.538Z,8.43
2019-03-28T23:15:45.309Z,8.83
2019-03-28T23:18:14.765Z,8.23
2019-03-28T23:20:44.319Z,8.10
2019-03-28T23:23:14.615Z,9.10
2019-03-28T23:25:44.052Z,8.17
2019-03-28T23:28:13.572Z,8.60
2019-03-28T23:30:42.869Z,8.47
2019-03-28T23:33:12.296Z,8.67
2019-03-28T23:35:41.677Z,9.00
2019-03-28T23:38:11.791Z,9.13
2019-03-28T23:40:41.421Z,8.47
2019-03-28T23:43:10.752Z,9.07
2019-03-28T23:45:40.312Z,9.13
2019-03-28T23:48:09.683Z,9.30
2019-03-28T23:50:39.253Z,9.37
2019-03-28T23:53:08.980Z,10.17
2019-03-28T23:55:38.589Z,8.97
2019-03-28T23:58:07.920Z,8.83
